sensor_id;sensor_type;location;lat;lon;timestamp;pressure;altitude;pressure_sealevel;temperature;humidity
62508;BME280;48556;51.972;4.624;2022-07-06T00:01:51;102728.97;;;19.20;48.95
62508;BME280;48556;51.972;4.624;2022-07-06T00:04:18;102727.31;;;19.13;49.19
62508;BME280;48556;51.972;4.624;2022-07-06T00:06:43;102731.66;;;19.19;49.07
62508;BME280;48556;51.972;4.624;2022-07-06T00:09:09;102728.47;;;18.98;49.73
62508;BME280;48556;51.972;4.624;2022-07-06T00:11:35;102732.69;;;19.10;49.62
62508;BME280;48556;51.972;4.624;2022-07-06T00:14:01;102730.97;;;19.06;49.69
62508;BME280;48556;51.972;4.624;2022-07-06T00:16:26;102728.28;;;19.09;49.71
62508;BME280;48556;51.972;4.624;2022-07-06T00:18:52;102716.16;;;19.39;49.32
62508;BME280;48556;51.972;4.624;2022-07-06T00:21:17;102714.72;;;19.21;50.04
62508;BME280;48556;51.972;4.624;2022-07-06T00:23:44;102724.59;;;19.16;50.41
62508;BME280;48556;51.972;4.624;2022-07-06T00:26:10;102714.00;;;19.11;50.29
62508;BME280;48556;51.972;4.624;2022-07-06T00:28:35;102721.19;;;19.08;50.10
62508;BME280;48556;51.972;4.624;2022-07-06T00:31:01;102721.34;;;18.99;50.18
62508;BME280;48556;51.972;4.624;2022-07-06T00:33:26;102716.81;;;19.04;50.35
62508;BME280;48556;51.972;4.624;2022-07-06T00:35:52;102707.22;;;18.95;50.54
62508;BME280;48556;51.972;4.624;2022-07-06T00:38:17;102714.25;;;18.99;50.35
62508;BME280;48556;51.972;4.624;2022-07-06T00:40:43;102705.41;;;18.95;50.70
62508;BME280;48556;51.972;4.624;2022-07-06T00:43:08;102708.06;;;18.95;50.77
62508;BME280;48556;51.972;4.624;2022-07-06T00:45:34;102704.53;;;18.93;50.40
62508;BME280;48556;51.972;4.624;2022-07-06T00:48:00;102723.19;;;18.95;50.46
62508;BME280;48556;51.972;4.624;2022-07-06T00:50:26;102721.19;;;18.52;51.67
62508;BME280;48556;51.972;4.624;2022-07-06T00:52:56;102726.47;;;18.55;51.81
62508;BME280;48556;51.972;4.624;2022-07-06T00:55:27;102722.84;;;18.60;51.59
62508;BME280;48556;51.972;4.624;2022-07-06T00:57:55;102722.47;;;18.82;51.15
62508;BME280;48556;51.972;4.624;2022-07-06T01:00:23;102721.72;;;18.74;51.37
62508;BME280;48556;51.972;4.624;2022-07-06T01:02:49;102720.44;;;18.40;52.21
62508;BME280;48556;51.972;4.624;2022-07-06T01:05:16;102719.00;;;18.78;51.02
62508;BME280;48556;51.972;4.624;2022-07-06T01:07:44;102728.88;;;18.72;51.39
62508;BME280;48556;51.972;4.624;2022-07-06T01:10:12;102714.47;;;18.82;51.18
62508;BME280;48556;51.972;4.624;2022-07-06T01:12:39;102708.56;;;18.65;51.67
62508;BME280;48556;51.972;4.624;2022-07-06T01:15:11;102714.59;;;18.76;51.45
62508;BME280;48556;51.972;4.624;2022-07-06T01:17:38;102715.53;;;18.72;51.75
62508;BME280;48556;51.972;4.624;2022-07-06T01:20:21;102719.28;;;18.58;51.85
62508;BME280;48556;51.972;4.624;2022-07-06T01:22:49;102715.50;;;18.73;51.53
62508;BME280;48556;51.972;4.624;2022-07-06T01:25:16;102718.19;;;18.73;51.74
62508;BME280;48556;51.972;4.624;2022-07-06T01:27:42;102720.75;;;18.78;51.52
62508;BME280;48556;51.972;4.624;2022-07-06T01:30:12;102712.75;;;18.78;51.52
62508;BME280;48556;51.972;4.624;2022-07-06T01:32:39;102718.13;;;18.76;51.57
62508;BME280;48556;51.972;4.624;2022-07-06T01:35:07;102719.06;;;18.75;51.58
62508;BME280;48556;51.972;4.624;2022-07-06T01:37:32;102724.72;;;18.52;52.47
62508;BME280;48556;51.972;4.624;2022-07-06T01:40:04;102710.59;;;18.47;52.27
62508;BME280;48556;51.972;4.624;2022-07-06T01:42:30;102716.63;;;18.58;52.01
62508;BME280;48556;51.972;4.624;2022-07-06T01:44:57;102714.84;;;18.60;51.94
62508;BME280;48556;51.972;4.624;2022-07-06T01:47:22;102710.34;;;18.62;51.80
62508;BME280;48556;51.972;4.624;2022-07-06T01:49:48;102704.19;;;18.60;51.86
62508;BME280;48556;51.972;4.624;2022-07-06T01:52:14;102713.03;;;18.61;52.01
62508;BME280;48556;51.972;4.624;2022-07-06T01:54:40;102710.59;;;18.47;51.96
62508;BME280;48556;51.972;4.624;2022-07-06T01:57:05;102707.16;;;18.42;52.41
62508;BME280;48556;51.972;4.624;2022-07-06T01:59:31;102721.63;;;18.22;53.01
62508;BME280;48556;51.972;4.624;2022-07-06T02:01:56;102708.88;;;18.43;52.33
62508;BME280;48556;51.972;4.624;2022-07-06T02:04:22;102709.47;;;18.64;51.76
62508;BME280;48556;51.972;4.624;2022-07-06T02:06:48;102704.19;;;18.60;51.75
62508;BME280;48556;51.972;4.624;2022-07-06T02:09:13;102696.13;;;18.64;51.84
62508;BME280;48556;51.972;4.624;2022-07-06T02:11:39;102700.66;;;18.58;51.86
62508;BME280;48556;51.972;4.624;2022-07-06T02:14:04;102709.69;;;18.50;51.99
62508;BME280;48556;51.972;4.624;2022-07-06T02:16:30;102711.34;;;18.57;51.68
62508;BME280;48556;51.972;4.624;2022-07-06T02:18:55;102715.84;;;18.53;51.64
62508;BME280;48556;51.972;4.624;2022-07-06T02:21:21;102705.00;;;18.66;51.31
62508;BME280;48556;51.972;4.624;2022-07-06T02:23:47;102709.47;;;18.62;52.23
62508;BME280;48556;51.972;4.624;2022-07-06T02:26:12;102714.91;;;18.57;52.02
62508;BME280;48556;51.972;4.624;2022-07-06T02:28:38;102718.44;;;18.58;51.68
62508;BME280;48556;51.972;4.624;2022-07-06T02:31:03;102720.34;;;18.48;51.84
62508;BME280;48556;51.972;4.624;2022-07-06T02:33:29;102722.13;;;18.49;51.93
62508;BME280;48556;51.972;4.624;2022-07-06T02:35:54;102713.41;;;18.39;52.20
62508;BME280;48556;51.972;4.624;2022-07-06T02:38:20;102708.88;;;18.43;52.12
62508;BME280;48556;51.972;4.624;2022-07-06T02:40:45;102709.69;;;18.50;51.68
62508;BME280;48556;51.972;4.624;2022-07-06T02:43:11;102711.78;;;18.26;52.09
62508;BME280;48556;51.972;4.624;2022-07-06T02:45:37;102712.53;;;18.36;52.31
62508;BME280;48556;51.972;4.624;2022-07-06T02:48:02;102715.53;;;18.14;52.51
62508;BME280;48556;51.972;4.624;2022-07-06T02:50:28;102712.66;;;18.30;52.07
62508;BME280;48556;51.972;4.624;2022-07-06T02:52:53;102712.66;;;18.26;52.01
62508;BME280;48556;51.972;4.624;2022-07-06T02:55:20;102713.47;;;18.33;51.93
62508;BME280;48556;51.972;4.624;2022-07-06T02:57:46;102715.31;;;18.30;51.79
62508;BME280;48556;51.972;4.624;2022-07-06T03:00:12;102717.25;;;18.17;52.08
62508;BME280;48556;51.972;4.624;2022-07-06T03:02:37;102716.38;;;18.16;52.21
62508;BME280;48556;51.972;4.624;2022-07-06T03:05:03;102712.97;;;18.06;52.44
62508;BME280;48556;51.972;4.624;2022-07-06T03:07:29;102718.28;;;18.06;52.21
62508;BME280;48556;51.972;4.624;2022-07-06T03:09:54;102716.47;;;18.10;52.49
62508;BME280;48556;51.972;4.624;2022-07-06T03:12:20;102718.47;;;17.92;52.70
62508;BME280;48556;51.972;4.624;2022-07-06T03:14:45;102715.56;;;18.09;52.72
62508;BME280;48556;51.972;4.624;2022-07-06T03:17:11;102711.06;;;18.16;52.50
62508;BME280;48556;51.972;4.624;2022-07-06T03:19:39;102720.66;;;18.26;52.28
62508;BME280;48556;51.972;4.624;2022-07-06T03:22:05;102718.19;;;18.14;52.16
62508;BME280;48556;51.972;4.624;2022-07-06T03:24:31;102716.63;;;17.98;52.66
62508;BME280;48556;51.972;4.624;2022-07-06T03:26:56;102712.97;;;18.05;52.68
62508;BME280;48556;51.972;4.624;2022-07-06T03:29:22;102710.09;;;18.20;52.42
62508;BME280;48556;51.972;4.624;2022-07-06T03:31:47;102722.06;;;17.85;53.80
62508;BME280;48556;51.972;4.624;2022-07-06T03:34:13;102711.59;;;17.71;53.66
62508;BME280;48556;51.972;4.624;2022-07-06T03:36:38;102713.16;;;17.89;53.08
62508;BME280;48556;51.972;4.624;2022-07-06T03:39:04;102712.16;;;18.00;52.97
62508;BME280;48556;51.972;4.624;2022-07-06T03:41:30;102717.69;;;17.81;53.47
62508;BME280;48556;51.972;4.624;2022-07-06T03:43:55;102707.34;;;17.55;54.18
62508;BME280;48556;51.972;4.624;2022-07-06T03:46:21;102708.72;;;17.09;55.28
62508;BME280;48556;51.972;4.624;2022-07-06T03:48:46;102704.19;;;17.19;55.27
62508;BME280;48556;51.972;4.624;2022-07-06T03:51:12;102696.19;;;17.20;55.44
62508;BME280;48556;51.972;4.624;2022-07-06T03:53:37;102698.84;;;17.23;55.16
62508;BME280;48556;51.972;4.624;2022-07-06T03:56:03;102693.97;;;17.63;54.25
62508;BME280;48556;51.972;4.624;2022-07-06T03:58:47;102700.22;;;17.58;54.53
62508;BME280;48556;51.972;4.624;2022-07-06T04:01:12;102705.31;;;17.79;53.81
62508;BME280;48556;51.972;4.624;2022-07-06T04:03:38;102707.31;;;17.61;54.14
62508;BME280;48556;51.972;4.624;2022-07-06T04:06:04;102704.13;;;18.03;53.02
62508;BME280;48556;51.972;4.624;2022-07-06T04:08:29;102701.66;;;17.86;53.46
62508;BME280;48556;51.972;4.624;2022-07-06T04:10:55;102705.88;;;18.04;53.40
62508;BME280;48556;51.972;4.624;2022-07-06T04:13:20;102704.47;;;18.42;52.37
62508;BME280;48556;51.972;4.624;2022-07-06T04:15:46;102709.03;;;18.34;52.53
62508;BME280;48556;51.972;4.624;2022-07-06T04:18:11;102711.72;;;18.31;52.30
62508;BME280;48556;51.972;4.624;2022-07-06T04:20:37;102714.22;;;18.43;52.06
62508;BME280;48556;51.972;4.624;2022-07-06T04:23:02;102712.09;;;18.65;51.69
62508;BME280;48556;51.972;4.624;2022-07-06T04:25:28;102702.84;;;18.86;51.23
62508;BME280;48556;51.972;4.624;2022-07-06T04:27:53;102701.03;;;18.91;50.44
62508;BME280;48556;51.972;4.624;2022-07-06T04:30:19;102709.16;;;18.82;50.35
62508;BME280;48556;51.972;4.624;2022-07-06T04:32:44;102709.31;;;18.73;50.47
62508;BME280;48556;51.972;4.624;2022-07-06T04:35:10;102712.69;;;18.84;50.49
62508;BME280;48556;51.972;4.624;2022-07-06T04:37:36;102698.91;;;19.12;49.88
62508;BME280;48556;51.972;4.624;2022-07-06T04:40:03;102702.97;;;19.32;49.53
62508;BME280;48556;51.972;4.624;2022-07-06T04:42:28;102708.97;;;19.43;49.26
62508;BME280;48556;51.972;4.624;2022-07-06T04:44:54;102711.31;;;19.13;49.51
62508;BME280;48556;51.972;4.624;2022-07-06T04:47:20;102695.22;;;19.19;49.26
62508;BME280;48556;51.972;4.624;2022-07-06T04:49:45;102708.41;;;18.75;50.50
62508;BME280;48556;51.972;4.624;2022-07-06T04:52:11;102713.41;;;18.95;50.08
62508;BME280;48556;51.972;4.624;2022-07-06T04:54:36;102715.59;;;18.69;50.39
62508;BME280;48556;51.972;4.624;2022-07-06T04:57:02;102712.69;;;18.84;50.27
62508;BME280;48556;51.972;4.624;2022-07-06T04:59:28;102720.28;;;19.09;49.93
62508;BME280;48556;51.972;4.624;2022-07-06T05:01:53;102714.38;;;19.40;48.96
62508;BME280;48556;51.972;4.624;2022-07-06T05:04:19;102720.38;;;19.51;49.08
62508;BME280;48556;51.972;4.624;2022-07-06T05:06:45;102713.28;;;19.50;48.75
62508;BME280;48556;51.972;4.624;2022-07-06T05:09:12;102714.03;;;19.10;49.62
62508;BME280;48556;51.972;4.624;2022-07-06T05:11:38;102714.78;;;19.18;49.12
62508;BME280;48556;51.972;4.624;2022-07-06T05:14:05;102725.63;;;19.09;49.64
62508;BME280;48556;51.972;4.624;2022-07-06T05:16:31;102725.38;;;19.21;48.92
62508;BME280;48556;51.972;4.624;2022-07-06T05:18:57;102718.09;;;19.33;48.79
62508;BME280;48556;51.972;4.624;2022-07-06T05:21:22;102731.72;;;19.62;48.34
62508;BME280;48556;51.972;4.624;2022-07-06T05:23:48;102733.06;;;18.88;49.47
62508;BME280;48556;51.972;4.624;2022-07-06T05:26:13;102738.22;;;19.47;48.52
62508;BME280;48556;51.972;4.624;2022-07-06T05:28:39;102734.75;;;19.44;48.44
62508;BME280;48556;51.972;4.624;2022-07-06T05:31:05;102744.28;;;19.07;49.01
62508;BME280;48556;51.972;4.624;2022-07-06T05:33:30;102736.38;;;19.53;48.59
62508;BME280;48556;51.972;4.624;2022-07-06T05:35:56;102738.09;;;19.55;48.83
62508;BME280;48556;51.972;4.624;2022-07-06T05:38:21;102731.53;;;19.72;48.50
62508;BME280;48556;51.972;4.624;2022-07-06T05:40:47;102730.47;;;19.82;48.27
62508;BME280;48556;51.972;4.624;2022-07-06T05:43:12;102730.25;;;19.46;48.79
62508;BME280;48556;51.972;4.624;2022-07-06T05:45:38;102735.19;;;19.68;48.12
62508;BME280;48556;51.972;4.624;2022-07-06T05:48:03;102732.31;;;19.32;48.68
62508;BME280;48556;51.972;4.624;2022-07-06T05:50:47;102726.78;;;19.42;48.61
62508;BME280;48556;51.972;4.624;2022-07-06T05:53:13;102729.72;;;19.27;48.37
62508;BME280;48556;51.972;4.624;2022-07-06T05:55:39;102729.59;;;19.35;48.59
62508;BME280;48556;51.972;4.624;2022-07-06T05:58:04;102737.00;;;19.17;48.51
62508;BME280;48556;51.972;4.624;2022-07-06T06:00:30;102733.16;;;19.34;48.54
62508;BME280;48556;51.972;4.624;2022-07-06T06:02:57;102731.81;;;19.58;47.90
62508;BME280;48556;51.972;4.624;2022-07-06T06:05:23;102748.66;;;19.11;48.43
62508;BME280;48556;51.972;4.624;2022-07-06T06:07:48;102734.69;;;18.97;49.16
62508;BME280;48556;51.972;4.624;2022-07-06T06:10:17;102733.97;;;18.87;49.32
62508;BME280;48556;51.972;4.624;2022-07-06T06:12:44;102748.53;;;19.19;48.81
62508;BME280;48556;51.972;4.624;2022-07-06T06:15:11;102737.44;;;19.44;48.55
62508;BME280;48556;51.972;4.624;2022-07-06T06:17:37;102741.91;;;18.90;48.92
62508;BME280;48556;51.972;4.624;2022-07-06T06:20:05;102737.50;;;18.86;49.41
62508;BME280;48556;51.972;4.624;2022-07-06T06:22:32;102736.47;;;19.48;48.49
62508;BME280;48556;51.972;4.624;2022-07-06T06:25:08;102738.25;;;19.46;47.82
62508;BME280;48556;51.972;4.624;2022-07-06T06:27:34;102744.19;;;19.60;47.90
62508;BME280;48556;51.972;4.624;2022-07-06T06:29:59;102729.66;;;19.32;47.95
62508;BME280;48556;51.972;4.624;2022-07-06T06:32:25;102738.59;;;19.29;47.79
62508;BME280;48556;51.972;4.624;2022-07-06T06:34:50;102738.91;;;19.59;47.16
62508;BME280;48556;51.972;4.624;2022-07-06T06:37:16;102746.25;;;19.46;47.20
62508;BME280;48556;51.972;4.624;2022-07-06T06:39:41;102749.44;;;19.67;46.84
62508;BME280;48556;51.972;4.624;2022-07-06T06:42:07;102741.44;;;19.67;46.55
62508;BME280;48556;51.972;4.624;2022-07-06T06:44:32;102739.91;;;19.98;45.65
62508;BME280;48556;51.972;4.624;2022-07-06T06:46:58;102733.41;;;20.10;45.82
62508;BME280;48556;51.972;4.624;2022-07-06T06:49:23;102748.50;;;20.13;45.35
62508;BME280;48556;51.972;4.624;2022-07-06T06:51:49;102742.38;;;20.09;44.49
62508;BME280;48556;51.972;4.624;2022-07-06T06:54:14;102740.94;;;20.34;44.16
62508;BME280;48556;51.972;4.624;2022-07-06T06:56:40;102744.16;;;20.48;43.14
62508;BME280;48556;51.972;4.624;2022-07-06T06:59:05;102749.31;;;20.17;43.92
62508;BME280;48556;51.972;4.624;2022-07-06T07:01:31;102755.00;;;20.42;43.52
62508;BME280;48556;51.972;4.624;2022-07-06T07:03:58;102745.22;;;20.41;43.83
62508;BME280;48556;51.972;4.624;2022-07-06T07:06:24;102741.16;;;20.99;42.37
62508;BME280;48556;51.972;4.624;2022-07-06T07:08:49;102747.19;;;21.08;42.45
62508;BME280;48556;51.972;4.624;2022-07-06T07:11:15;102741.66;;;21.47;41.49
62508;BME280;48556;51.972;4.624;2022-07-06T07:13:41;102738.91;;;21.17;41.80
62508;BME280;48556;51.972;4.624;2022-07-06T07:16:06;102752.59;;;21.05;40.67
62508;BME280;48556;51.972;4.624;2022-07-06T07:18:32;102747.03;;;21.47;40.15
62508;BME280;48556;51.972;4.624;2022-07-06T07:20:57;102746.94;;;21.17;40.30
62508;BME280;48556;51.972;4.624;2022-07-06T07:23:23;102751.44;;;21.82;40.35
62508;BME280;48556;51.972;4.624;2022-07-06T07:25:50;102749.44;;;21.23;39.02
62508;BME280;48556;51.972;4.624;2022-07-06T07:28:15;102744.13;;;21.56;38.41
62508;BME280;48556;51.972;4.624;2022-07-06T07:30:41;102732.88;;;21.42;38.86
62508;BME280;48556;51.972;4.624;2022-07-06T07:33:07;102735.25;;;21.54;38.44
62508;BME280;48556;51.972;4.624;2022-07-06T07:35:32;102738.84;;;21.51;38.72
62508;BME280;48556;51.972;4.624;2022-07-06T07:37:58;102733.44;;;21.86;36.70
62508;BME280;48556;51.972;4.624;2022-07-06T07:40:23;102746.88;;;21.84;36.42
62508;BME280;48556;51.972;4.624;2022-07-06T07:42:49;102738.28;;;21.73;35.19
62508;BME280;48556;51.972;4.624;2022-07-06T07:45:15;102738.53;;;21.95;35.92
62508;BME280;48556;51.972;4.624;2022-07-06T07:47:41;102743.44;;;22.11;36.20
62508;BME280;48556;51.972;4.624;2022-07-06T07:50:08;102739.84;;;22.12;36.09
62508;BME280;48556;51.972;4.624;2022-07-06T07:52:34;102740.38;;;22.53;35.60
62508;BME280;48556;51.972;4.624;2022-07-06T07:54:59;102728.66;;;21.97;36.66
62508;BME280;48556;51.972;4.624;2022-07-06T07:57:25;102735.91;;;21.94;36.06
62508;BME280;48556;51.972;4.624;2022-07-06T07:59:50;102735.66;;;22.01;35.29
62508;BME280;48556;51.972;4.624;2022-07-06T08:02:16;102725.81;;;22.04;33.85
62508;BME280;48556;51.972;4.624;2022-07-06T08:04:41;102727.19;;;22.74;33.76
62508;BME280;48556;51.972;4.624;2022-07-06T08:07:07;102728.19;;;22.13;33.99
62508;BME280;48556;51.972;4.624;2022-07-06T08:09:33;102727.00;;;22.23;33.36
62508;BME280;48556;51.972;4.624;2022-07-06T08:11:58;102725.94;;;22.57;31.64
62508;BME280;48556;51.972;4.624;2022-07-06T08:14:24;102723.16;;;22.87;31.26
62508;BME280;48556;51.972;4.624;2022-07-06T08:16:50;102713.66;;;23.03;31.28
62508;BME280;48556;51.972;4.624;2022-07-06T08:19:19;102718.25;;;23.27;31.23
62508;BME280;48556;51.972;4.624;2022-07-06T08:21:44;102730.25;;;23.65;30.94
62508;BME280;48556;51.972;4.624;2022-07-06T08:24:12;102726.69;;;23.65;30.17
62508;BME280;48556;51.972;4.624;2022-07-06T08:26:48;102713.47;;;24.08;29.20
62508;BME280;48556;51.972;4.624;2022-07-06T08:29:21;102726.09;;;24.50;28.38
62508;BME280;48556;51.972;4.624;2022-07-06T08:31:47;102712.59;;;24.29;28.34
62508;BME280;48556;51.972;4.624;2022-07-06T08:34:23;102708.34;;;24.46;27.90
62508;BME280;48556;51.972;4.624;2022-07-06T08:36:53;102716.25;;;24.50;28.47
62508;BME280;48556;51.972;4.624;2022-07-06T08:42:07;102708.91;;;24.54;28.48
62508;BME280;48556;51.972;4.624;2022-07-06T08:44:36;102709.66;;;24.80;28.15
62508;BME280;48556;51.972;4.624;2022-07-06T08:47:05;102711.06;;;24.00;28.37
62508;BME280;48556;51.972;4.624;2022-07-06T08:49:39;102709.88;;;24.07;29.09
62508;BME280;48556;51.972;4.624;2022-07-06T08:52:05;102706.84;;;23.69;29.42
62508;BME280;48556;51.972;4.624;2022-07-06T08:54:31;102717.25;;;23.78;29.21
62508;BME280;48556;51.972;4.624;2022-07-06T08:56:57;102713.63;;;23.79;29.35
62508;BME280;48556;51.972;4.624;2022-07-06T08:59:25;102701.84;;;24.29;27.68
62508;BME280;48556;51.972;4.624;2022-07-06T09:01:50;102709.72;;;24.99;27.53
62508;BME280;48556;51.972;4.624;2022-07-06T09:04:16;102704.63;;;25.13;26.84
62508;BME280;48556;51.972;4.624;2022-07-06T09:06:46;102712.22;;;24.83;27.02
62508;BME280;48556;51.972;4.624;2022-07-06T09:15:52;102705.50;;;25.14;26.43
62508;BME280;48556;51.972;4.624;2022-07-06T09:18:17;102704.56;;;24.05;27.49
62508;BME280;48556;51.972;4.624;2022-07-06T09:20:46;102701.47;;;25.03;27.12
62508;BME280;48556;51.972;4.624;2022-07-06T09:23:16;102699.06;;;25.38;26.71
62508;BME280;48556;51.972;4.624;2022-07-06T09:25:48;102705.97;;;25.03;27.25
62508;BME280;48556;51.972;4.624;2022-07-06T09:28:14;102705.34;;;24.96;27.75
62508;BME280;48556;51.972;4.624;2022-07-06T09:30:40;102713.56;;;24.93;27.64
62508;BME280;48556;51.972;4.624;2022-07-06T09:33:08;102714.78;;;25.27;27.01
62508;BME280;48556;51.972;4.624;2022-07-06T09:35:38;102718.00;;;25.56;26.80
62508;BME280;48556;51.972;4.624;2022-07-06T09:38:06;102713.94;;;25.85;26.11
62508;BME280;48556;51.972;4.624;2022-07-06T09:40:35;102717.81;;;26.18;25.97
62508;BME280;48556;51.972;4.624;2022-07-06T09:43:23;102727.03;;;26.50;25.43
62508;BME280;48556;51.972;4.624;2022-07-06T09:45:51;102724.00;;;26.01;26.19
62508;BME280;48556;51.972;4.624;2022-07-06T09:48:22;102729.03;;;26.64;25.20
62508;BME280;48556;51.972;4.624;2022-07-06T09:53:15;102733.50;;;26.09;25.37
62508;BME280;48556;51.972;4.624;2022-07-06T09:55:45;102735.34;;;26.46;25.27
62508;BME280;48556;51.972;4.624;2022-07-06T09:58:13;102722.09;;;26.41;25.42
62508;BME280;48556;51.972;4.624;2022-07-06T10:00:38;102733.38;;;25.73;26.51
62508;BME280;48556;51.972;4.624;2022-07-06T10:03:05;102731.94;;;25.45;26.64
62508;BME280;48556;51.972;4.624;2022-07-06T10:05:31;102730.78;;;25.90;26.48
62508;BME280;48556;51.972;4.624;2022-07-06T10:07:59;102723.56;;;25.91;26.04
62508;BME280;48556;51.972;4.624;2022-07-06T10:10:29;102720.06;;;25.70;26.19
62508;BME280;48556;51.972;4.624;2022-07-06T10:12:59;102713.50;;;25.56;26.61
62508;BME280;48556;51.972;4.624;2022-07-06T10:15:27;102711.16;;;25.49;27.31
62508;BME280;48556;51.972;4.624;2022-07-06T10:17:56;102726.75;;;25.20;27.43
62508;BME280;48556;51.972;4.624;2022-07-06T10:20:22;102716.66;;;25.25;26.77
62508;BME280;48556;51.972;4.624;2022-07-06T10:22:49;102710.44;;;25.64;27.07
62508;BME280;48556;51.972;4.624;2022-07-06T10:25:20;102723.13;;;25.00;27.52
62508;BME280;48556;51.972;4.624;2022-07-06T10:27:52;102721.63;;;24.93;27.45
62508;BME280;48556;51.972;4.624;2022-07-06T10:30:18;102710.53;;;25.21;28.03
62508;BME280;48556;51.972;4.624;2022-07-06T10:32:49;102716.81;;;25.42;28.13
62508;BME280;48556;51.972;4.624;2022-07-06T10:35:19;102705.75;;;25.07;27.51
62508;BME280;48556;51.972;4.624;2022-07-06T10:37:46;102707.25;;;25.15;27.94
62508;BME280;48556;51.972;4.624;2022-07-06T10:40:39;102706.00;;;25.82;26.34
62508;BME280;48556;51.972;4.624;2022-07-06T10:43:34;102700.41;;;25.87;26.57
62508;BME280;48556;51.972;4.624;2022-07-06T10:46:11;102707.03;;;26.18;26.17
62508;BME280;48556;51.972;4.624;2022-07-06T10:48:41;102703.91;;;26.27;26.06
62508;BME280;48556;51.972;4.624;2022-07-06T10:51:08;102704.91;;;26.43;25.47
62508;BME280;48556;51.972;4.624;2022-07-06T10:53:38;102707.69;;;26.23;26.04
62508;BME280;48556;51.972;4.624;2022-07-06T10:56:06;102703.47;;;25.79;26.76
62508;BME280;48556;51.972;4.624;2022-07-06T10:58:36;102713.56;;;26.14;26.91
62508;BME280;48556;51.972;4.624;2022-07-06T11:01:03;102700.91;;;25.57;27.24
62508;BME280;48556;51.972;4.624;2022-07-06T11:04:10;102694.75;;;25.34;28.65
62508;BME280;48556;51.972;4.624;2022-07-06T11:06:39;102692.59;;;26.01;26.87
62508;BME280;48556;51.972;4.624;2022-07-06T11:09:05;102687.03;;;25.66;26.78
62508;BME280;48556;51.972;4.624;2022-07-06T11:14:05;102677.78;;;26.64;25.73
62508;BME280;48556;51.972;4.624;2022-07-06T11:19:10;102672.47;;;26.08;26.52
62508;BME280;48556;51.972;4.624;2022-07-06T11:21:37;102668.88;;;26.62;25.94
62508;BME280;48556;51.972;4.624;2022-07-06T11:24:08;102667.88;;;25.91;26.52
62508;BME280;48556;51.972;4.624;2022-07-06T11:26:35;102659.69;;;25.93;27.34
62508;BME280;48556;51.972;4.624;2022-07-06T11:29:07;102660.19;;;25.63;26.81
62508;BME280;48556;51.972;4.624;2022-07-06T11:31:39;102659.75;;;25.34;27.89
62508;BME280;48556;51.972;4.624;2022-07-06T11:34:08;102657.00;;;25.55;27.47
62508;BME280;48556;51.972;4.624;2022-07-06T11:36:34;102653.22;;;25.97;26.86
62508;BME280;48556;51.972;4.624;2022-07-06T11:39:00;102646.75;;;26.01;26.69
62508;BME280;48556;51.972;4.624;2022-07-06T11:41:27;102644.97;;;26.00;26.88
62508;BME280;48556;51.972;4.624;2022-07-06T11:43:52;102655.88;;;26.35;26.50
62508;BME280;48556;51.972;4.624;2022-07-06T11:49:00;102636.13;;;26.52;26.49
62508;BME280;48556;51.972;4.624;2022-07-06T11:51:35;102640.28;;;26.77;26.13
62508;BME280;48556;51.972;4.624;2022-07-06T11:54:11;102637.72;;;27.42;25.50
62508;BME280;48556;51.972;4.624;2022-07-06T11:56:44;102641.16;;;28.10;25.04
62508;BME280;48556;51.972;4.624;2022-07-06T11:59:10;102641.75;;;27.51;25.25
62508;BME280;48556;51.972;4.624;2022-07-06T12:01:36;102637.06;;;28.49;23.88
62508;BME280;48556;51.972;4.624;2022-07-06T12:04:07;102646.34;;;28.75;23.62
62508;BME280;48556;51.972;4.624;2022-07-06T12:06:33;102644.91;;;27.91;24.50
62508;BME280;48556;51.972;4.624;2022-07-06T12:09:00;102641.91;;;27.64;25.41
62508;BME280;48556;51.972;4.624;2022-07-06T12:11:34;102652.31;;;28.20;25.39
62508;BME280;48556;51.972;4.624;2022-07-06T12:14:02;102655.44;;;27.31;25.64
62508;BME280;48556;51.972;4.624;2022-07-06T12:18:55;102638.00;;;27.54;25.59
62508;BME280;48556;51.972;4.624;2022-07-06T12:21:20;102635.47;;;28.14;24.76
62508;BME280;48556;51.972;4.624;2022-07-06T12:23:49;102640.69;;;27.70;25.89
62508;BME280;48556;51.972;4.624;2022-07-06T12:26:20;102636.31;;;28.01;25.86
62508;BME280;48556;51.972;4.624;2022-07-06T12:29:03;102645.75;;;27.44;26.45
62508;BME280;48556;51.972;4.624;2022-07-06T12:31:33;102635.66;;;27.30;26.05
62508;BME280;48556;51.972;4.624;2022-07-06T12:33:59;102638.19;;;27.33;26.42
62508;BME280;48556;51.972;4.624;2022-07-06T12:36:25;102628.59;;;26.94;26.34
62508;BME280;48556;51.972;4.624;2022-07-06T12:38:50;102625.81;;;26.95;26.63
62508;BME280;48556;51.972;4.624;2022-07-06T12:41:30;102620.41;;;27.47;26.03
62508;BME280;48556;51.972;4.624;2022-07-06T12:44:03;102633.03;;;27.62;26.40
62508;BME280;48556;51.972;4.624;2022-07-06T12:46:33;102625.25;;;27.56;26.18
62508;BME280;48556;51.972;4.624;2022-07-06T12:49:03;102620.16;;;26.65;27.10
62508;BME280;48556;51.972;4.624;2022-07-06T12:51:29;102615.53;;;27.53;26.21
62508;BME280;48556;51.972;4.624;2022-07-06T12:54:14;102607.00;;;27.27;27.42
62508;BME280;48556;51.972;4.624;2022-07-06T12:59:40;102609.31;;;27.35;27.27
62508;BME280;48556;51.972;4.624;2022-07-06T13:02:07;102600.00;;;27.89;26.14
62508;BME280;48556;51.972;4.624;2022-07-06T13:04:35;102612.03;;;27.83;27.00
62508;BME280;48556;51.972;4.624;2022-07-06T13:07:02;102611.16;;;27.67;26.82
62508;BME280;48556;51.972;4.624;2022-07-06T13:09:31;102612.38;;;27.61;26.44
62508;BME280;48556;51.972;4.624;2022-07-06T13:11:56;102611.88;;;27.70;26.82
62508;BME280;48556;51.972;4.624;2022-07-06T13:14:22;102608.63;;;27.48;27.47
62508;BME280;48556;51.972;4.624;2022-07-06T13:16:48;102608.75;;;27.28;27.76